Port Aransas, TX (PTAT2)

Conditions for Sunday

Daily
Weekly
Monthly
Marine Data Graph

Marine & Boating Location Search

Enter a coastal zip code for marine weather.

General Information

Location: 27.828 -97.05
Buoy Type: C-MAN Station
Payload: MARS payload
Owned by: NDBC
Windspeed: Measured by obtained from anemometer
Sea Surface: Measured by Intake
Note:

Weather and Wave Data

Time Temp Humidity Wind Pressure
  Air
(°F)
Water
(°F)
  Dir Speed
(kts)
Speed
(mph)
Atmo.
(in)
Tend.
(in)
20:00 67 68 95 SE 13.0 15.0 29.96 -0.02
21:00 67 68 95 SE 13.0 15.0 29.96 -
22:00 67 68 95 SE 13.0 15.0 29.98 +0.01
23:00 67 69 95 SE 12.0 13.8 29.99 +0.02
00:00 67 69 95 SSE 12.0 13.8 29.99 +0.03
01:00 67 68 94 SSE 13.0 15.0 29.97 -0.01
02:00 67 69 95 SSE 15.0 17.3 29.95 -0.04
03:00 67 69 94 SSE 13.0 15.0 29.95 -0.04
04:00 67 69 94 SSE 13.0 15.0 29.93 -0.04
05:00 67 69 95 SSE 12.0 13.8 29.91 -0.04
06:00 67 69 96 South 13.0 15.0 29.91 -0.03
07:00 67 69 96 South 14.0 16.1 29.92 -
08:00 66 69 100 South 13.0 15.0 29.93 +0.02
09:00 66 69 100 South 9.0 10.4 29.95 +0.04
10:00 67 69 99 SSE 10.0 11.5 29.96 +0.04
11:00 68 69 92 South 12.0 13.8 29.96 +0.02
12:00 68 69 94 SSE 10.0 11.5 29.95 -
13:00 68 69 93 SE 9.0 10.4 29.94 -0.02
14:00 69 70 90 ESE 8.0 9.2 29.93 -0.03
15:00 69 71 88 East 9.0 10.4 29.90 -0.04
16:00 69 71 89 ESE 13.0 15.0 29.86 -0.08
17:00 69 72 89 ESE 16.0 18.4 29.81 -0.12
18:00 69 72 89 ESE 11.0 12.7 29.84 -0.06
19:00 69 72 87 East 7.0 8.1 29.86 -
21:00 69 71 95 NE 16.0 18.4 29.95 +0.11
22:00 69 71 92 ENE 23.0 26.5 29.91 +0.05
23:00 69 70 93 ESE 15.0 17.3 29.94 +0.04
00:00 69 70 92 East 15.0 17.3 29.90 -0.04
01:00 68 70 95 SE 11.0 12.7 29.93 +0.02
02:00 68 69 94 SE 7.0 8.1 29.94 -
03:00 68 69 94 SE 7.0 8.1 29.94 +0.04

Detailed Wave Spectra